Terminal Aerodrome Forecast
Issued by NWS

Home | Current Version | Previous Version | Text Only | Print | Product List | Glossary On
Versions: 1 2 3 4 5 6 7 8 9 10 11 12 13 14 15 16 17 18
000
FTUS43 KOAX 220536
TAFCDR
TAF
KCDR 220536Z 2206/2306 17025G38KT P6SM OVC020
     FM221000 22015G25KT P6SM OVC015
     FM221300 29012KT P6SM SCT050
     FM221900 24010KT P6SM SCT100 BKN250=

USA.gov is the U.S. government's official web portal to all federal, state and local government web resources and services.